Time;durP1;ratioP1;P1;durP2;ratioP2;P2;SDS_P1;SDS_P2;PMS_P1;PMS_P2;Temp;Humidity;BMP_temperature;BMP_pressure;BME280_temperature;BME280_humidity;BME280_pressure;Samples;Min_cycle;Max_cycle;Signal;HPM_P1;HPM_P2
2022/12/25 00:02:11;;;;;;;33.78;12.32;;;6.60;99.90;;;;;;5001426;28;20041;-79
2022/12/25 00:04:38;;;;;;;40.78;12.15;;;6.70;99.90;;;;;;4986693;28;20129;-80
2022/12/25 00:07:04;;;;;;;31.13;11.43;;;6.80;99.90;;;;;;5013339;28;20041;-80
2022/12/25 00:09:31;;;;;;;33.60;12.15;;;6.90;99.90;;;;;;4998907;28;20278;-79
2022/12/25 00:11:57;;;;;;;27.63;10.48;;;6.90;99.90;;;;;;4984559;28;20038;-80
2022/12/25 00:14:24;;;;;;;23.27;8.90;;;7.00;99.90;;;;;;4967921;28;20034;-80
2022/12/25 00:16:50;;;;;;;28.60;9.70;;;7.10;99.90;;;;;;5001797;28;20041;-80
2022/12/25 00:19:16;;;;;;;28.00;10.38;;;7.20;99.90;;;;;;4985965;28;20401;-80
2022/12/25 00:21:43;;;;;;;35.70;11.02;;;7.30;99.90;;;;;;4993563;28;20048;-79
2022/12/25 00:24:10;;;;;;;31.73;10.45;;;7.40;99.90;;;;;;5014795;28;20054;-80
2022/12/25 00:26:36;;;;;;;27.20;10.48;;;7.40;99.90;;;;;;5002924;28;20463;-80
2022/12/25 00:29:02;;;;;;;22.02;8.10;;;7.50;99.90;;;;;;5000491;28;20408;-79
2022/12/25 00:31:29;;;;;;;33.33;11.05;;;7.60;99.90;;;;;;4994568;28;20548;-80
2022/12/25 00:33:55;;;;;;;34.55;10.35;;;7.60;99.90;;;;;;5016333;28;20042;-80
2022/12/25 00:36:22;;;;;;;28.42;9.48;;;7.70;99.90;;;;;;5003048;28;20045;-80
2022/12/25 00:38:49;;;;;;;27.77;9.55;;;7.80;99.90;;;;;;4981423;28;21217;-79
2022/12/25 00:42:17;;;;;;;20.67;8.07;;;7.80;99.90;;;;;;4967651;28;20053;-81
2022/12/25 00:44:06;;;;;;;28.10;9.45;;;7.80;99.90;;;;;;4994289;28;20564;-80
2022/12/25 00:46:32;;;;;;;32.75;9.93;;;7.80;99.90;;;;;;4998686;28;20042;-81
2022/12/25 00:48:59;;;;;;;25.63;8.63;;;7.80;99.90;;;;;;4986827;28;20041;-80
2022/12/25 00:51:26;;;;;;;29.30;9.10;;;7.80;99.90;;;;;;4996276;28;20524;-80
2022/12/25 00:53:52;;;;;;;25.05;8.80;;;7.90;99.90;;;;;;5020955;28;20472;-80
2022/12/25 00:56:18;;;;;;;30.90;9.90;;;7.90;99.90;;;;;;5004865;28;20048;-81
2022/12/25 00:58:45;;;;;;;24.80;7.85;;;7.90;99.90;;;;;;4987985;28;20361;-79
2022/12/25 01:01:12;;;;;;;25.35;9.32;;;7.90;99.90;;;;;;4998053;28;20041;-80
2022/12/25 01:03:38;;;;;;;24.75;9.18;;;8.00;99.90;;;;;;4983202;28;20034;-80
2022/12/25 01:06:06;;;;;;;33.17;10.57;;;8.00;99.90;;;;;;5018581;28;20041;-80
2022/12/25 01:08:36;;;;;;;32.10;9.70;;;8.00;99.90;;;;;;4984051;28;20041;-80
2022/12/25 01:11:07;;;;;;;34.63;9.95;;;8.10;99.90;;;;;;5024432;28;20038;-79
2022/12/25 01:13:36;;;;;;;32.13;9.90;;;8.10;99.90;;;;;;5011764;28;20041;-80
2022/12/25 01:16:10;;;;;;;28.83;9.68;;;8.20;99.90;;;;;;5002510;28;20041;-80
2022/12/25 01:18:37;;;;;;;29.27;9.23;;;8.20;99.90;;;;;;5016770;28;20033;-79
2022/12/25 01:21:09;;;;;;;36.58;11.25;;;8.30;99.90;;;;;;4997767;28;20029;-79
2022/12/25 01:23:35;;;;;;;34.03;10.75;;;8.30;99.90;;;;;;5000209;28;20045;-80
2022/12/25 01:26:06;;;;;;;22.45;9.70;;;8.30;99.90;;;;;;5003406;28;20060;-80
2022/12/25 01:28:33;;;;;;;31.65;9.10;;;8.30;99.90;;;;;;4996940;28;20042;-80
2022/12/25 01:31:00;;;;;;;19.85;8.40;;;8.30;99.90;;;;;;4985083;28;20034;-80
2022/12/25 01:33:27;;;;;;;33.53;9.25;;;8.40;99.90;;;;;;5001262;28;20041;-81
2022/12/25 01:35:54;;;;;;;25.27;8.85;;;8.40;99.90;;;;;;5000866;28;20053;-80
2022/12/25 01:38:20;;;;;;;30.05;8.60;;;8.40;99.90;;;;;;4999958;28;20400;-80
2022/12/25 01:40:47;;;;;;;33.22;8.93;;;8.50;99.90;;;;;;4995993;28;20029;-80
2022/12/25 01:43:26;;;;;;;30.77;8.23;;;8.50;99.90;;;;;;5000793;28;20521;-81
2022/12/25 01:45:53;;;;;;;26.30;9.25;;;8.60;99.90;;;;;;5016818;28;20564;-81
2022/12/25 01:48:35;;;;;;;33.85;11.68;;;8.60;99.90;;;;;;4985791;28;20072;-80
2022/12/25 01:51:14;;;;;;;26.55;8.98;;;8.60;99.90;;;;;;4978744;28;20034;-81
2022/12/25 01:53:41;;;;;;;36.58;10.90;;;8.60;99.90;;;;;;5003855;28;20340;-81
2022/12/25 01:56:08;;;;;;;28.05;9.25;;;8.60;99.90;;;;;;4985344;28;20601;-80
2022/12/25 01:58:35;;;;;;;22.67;9.02;;;8.70;99.90;;;;;;5005987;28;20509;-82
2022/12/25 02:01:04;;;;;;;23.30;9.07;;;8.70;99.90;;;;;;5002827;28;20481;-82
2022/12/25 02:03:31;;;;;;;28.10;9.50;;;8.70;99.90;;;;;;5013097;28;20430;-81
2022/12/25 02:05:59;;;;;;;28.10;9.15;;;8.70;99.90;;;;;;5020523;28;20520;-81
2022/12/25 02:08:26;;;;;;;21.83;8.07;;;8.80;99.90;;;;;;4993635;28;20046;-80
2022/12/25 02:10:52;;;;;;;21.60;8.55;;;8.80;99.90;;;;;;4997582;28;20054;-82
2022/12/25 02:13:19;;;;;;;26.45;9.02;;;8.80;99.90;;;;;;4993128;28;20040;-78
2022/12/25 02:16:04;;;;;;;26.83;9.30;;;8.80;99.90;;;;;;5002139;28;20034;-79
2022/12/25 02:18:40;;;;;;;23.83;10.02;;;8.80;99.90;;;;;;4982787;28;20038;-78
2022/12/25 02:21:18;;;;;;;15.55;8.02;;;8.90;99.90;;;;;;4985447;28;20038;-78
2022/12/25 02:24:32;;;;;;;28.70;9.38;;;8.90;99.90;;;;;;4987074;28;20333;-79
2022/12/25 02:27:06;;;;;;;23.83;9.60;;;8.90;99.90;;;;;;4977903;28;20042;-79
2022/12/25 02:29:43;;;;;;;12.98;6.05;;;8.90;99.90;;;;;;4982196;28;20089;-78
2022/12/25 02:32:27;;;;;;;27.67;10.63;;;8.90;99.90;;;;;;5005748;28;20054;-78
2022/12/25 02:35:14;;;;;;;22.27;9.20;;;8.90;99.90;;;;;;5020067;28;20037;-78
2022/12/25 02:38:00;;;;;;;25.75;9.07;;;8.90;99.90;;;;;;5004378;28;20042;-79
2022/12/25 02:40:39;;;;;;;24.05;9.77;;;8.80;99.90;;;;;;4986382;28;20038;-78
2022/12/25 03:08:48;;;;;;;25.52;10.07;;;8.80;99.90;;;;;;4988109;28;20050;-83
2022/12/25 03:11:30;;;;;;;29.45;10.32;;;8.80;99.90;;;;;;5011393;28;20030;-80
2022/12/25 03:16:53;;;;;;;27.00;10.95;;;8.80;99.90;;;;;;4979842;28;20413;-80
2022/12/25 03:27:55;;;;;;;26.73;10.38;;;8.90;99.90;;;;;;5001413;28;20073;-81
2022/12/25 04:36:32;;;;;;;21.92;7.45;;;8.90;99.90;;;;;;5001910;28;20045;-79
2022/12/25 04:38:58;;;;;;;19.67;7.55;;;8.90;99.90;;;;;;4998569;28;20029;-80
2022/12/25 04:41:24;;;;;;;19.27;8.52;;;8.90;99.90;;;;;;4988418;28;20038;-79
2022/12/25 04:43:51;;;;;;;13.88;7.30;;;9.00;99.90;;;;;;4977535;28;20057;-80
2022/12/25 04:46:17;;;;;;;19.98;7.95;;;9.00;99.90;;;;;;4976536;28;20433;-80
2022/12/25 04:48:44;;;;;;;14.30;5.93;;;9.00;99.90;;;;;;4969865;28;20057;-79
2022/12/25 04:51:18;;;;;;;18.02;7.78;;;9.00;99.90;;;;;;4969274;28;20030;-79
2022/12/25 04:53:46;;;;;;;24.85;8.02;;;9.00;99.90;;;;;;4979566;28;20038;-80
2022/12/25 04:56:13;;;;;;;19.30;7.97;;;9.00;99.90;;;;;;4968823;28;20532;-80
2022/12/25 04:58:40;;;;;;;27.45;10.02;;;8.90;99.90;;;;;;5017743;28;20041;-79
2022/12/25 05:01:07;;;;;;;24.85;9.55;;;8.90;99.90;;;;;;4982409;28;20029;-79
2022/12/25 05:03:33;;;;;;;20.60;8.98;;;9.00;99.90;;;;;;5017701;28;20049;-79
2022/12/25 05:06:00;;;;;;;20.55;10.00;;;8.90;99.90;;;;;;5001798;28;20038;-79
2022/12/25 05:08:31;;;;;;;23.45;10.75;;;8.90;99.90;;;;;;5001844;28;20493;-79
2022/12/25 05:10:58;;;;;;;20.98;10.13;;;8.90;99.90;;;;;;4959911;28;20053;-79
2022/12/25 05:13:24;;;;;;;21.40;9.07;;;8.80;99.90;;;;;;5001736;28;20030;-79
2022/12/25 05:15:51;;;;;;;18.90;9.02;;;8.80;99.90;;;;;;4971823;28;20527;-79
2022/12/25 05:18:17;;;;;;;16.92;9.20;;;8.70;99.90;;;;;;4999756;28;20041;-79
2022/12/25 05:20:51;;;;;;;25.70;10.13;;;8.60;99.90;;;;;;4996405;28;20477;-79
2022/12/25 05:23:18;;;;;;;22.67;11.00;;;8.50;99.90;;;;;;4972032;28;20061;-79
2022/12/25 05:25:44;;;;;;;17.70;8.70;;;8.50;99.90;;;;;;4988085;28;20040;-79
2022/12/25 05:28:11;;;;;;;15.65;8.30;;;8.40;99.90;;;;;;4988075;28;20046;-79
2022/12/25 05:30:37;;;;;;;17.38;8.43;;;8.30;99.90;;;;;;4999094;28;20050;-79
2022/12/25 05:33:03;;;;;;;20.67;8.65;;;8.30;99.90;;;;;;4971326;28;20618;-80
2022/12/25 05:35:30;;;;;;;21.23;8.45;;;8.20;99.90;;;;;;5002543;28;20497;-79
2022/12/25 05:37:56;;;;;;;16.90;7.68;;;8.10;99.90;;;;;;4987689;28;20497;-79
2022/12/25 05:40:23;;;;;;;14.10;7.97;;;8.10;99.90;;;;;;5017272;28;20063;-79
2022/12/25 05:42:49;;;;;;;17.80;8.15;;;8.00;99.90;;;;;;4987329;28;20070;-79
2022/12/25 05:45:16;;;;;;;18.85;9.07;;;8.00;99.90;;;;;;4977135;28;20041;-79
2022/12/25 05:47:42;;;;;;;18.15;8.57;;;8.00;99.90;;;;;;4987917;28;20045;-79
2022/12/25 05:50:09;;;;;;;20.55;9.00;;;7.90;99.90;;;;;;5015051;28;20485;-79
2022/12/25 05:52:36;;;;;;;15.60;8.60;;;7.90;99.90;;;;;;4973509;28;20053;-79
2022/12/25 05:55:02;;;;;;;18.25;6.97;;;7.90;99.90;;;;;;5004714;28;20042;-79
2022/12/25 05:57:30;;;;;;;20.17;9.07;;;7.80;99.90;;;;;;4978474;28;20512;-79
2022/12/25 05:59:57;;;;;;;16.75;9.05;;;7.80;99.90;;;;;;4992905;28;20046;-79
2022/12/25 06:02:24;;;;;;;16.33;8.55;;;7.80;99.90;;;;;;5002114;28;20033;-79
2022/12/25 06:04:50;;;;;;;17.23;8.25;;;7.80;99.90;;;;;;5003930;28;20054;-79
2022/12/25 06:07:16;;;;;;;20.88;8.98;;;7.80;99.90;;;;;;5006383;28;20042;-79
2022/12/25 06:09:43;;;;;;;18.77;8.65;;;7.80;99.90;;;;;;5002447;28;20046;-80
2022/12/25 06:12:09;;;;;;;19.98;8.07;;;7.80;99.90;;;;;;5005178;28;20040;-79
2022/12/25 06:14:36;;;;;;;20.95;8.98;;;7.80;99.90;;;;;;5020915;28;20049;-80
2022/12/25 06:17:02;;;;;;;18.10;9.25;;;7.80;99.90;;;;;;4999175;28;20041;-79
2022/12/25 06:19:28;;;;;;;19.55;8.75;;;7.80;99.90;;;;;;4994676;28;20034;-79
2022/12/25 06:21:55;;;;;;;18.20;9.40;;;7.90;99.90;;;;;;5008677;28;20519;-79
2022/12/25 06:24:22;;;;;;;24.67;10.88;;;7.80;99.90;;;;;;4986236;28;20044;-79
2022/12/25 06:26:49;;;;;;;23.55;10.23;;;7.80;99.90;;;;;;4982711;28;20077;-79
2022/12/25 06:29:15;;;;;;;24.58;9.93;;;7.90;99.90;;;;;;4980076;28;20045;-79
2022/12/25 06:31:42;;;;;;;26.42;10.90;;;7.90;99.90;;;;;;5017525;28;20045;-79
2022/12/25 06:34:09;;;;;;;17.67;7.78;;;7.90;99.90;;;;;;4979237;28;20042;-80
2022/12/25 06:36:37;;;;;;;28.02;10.55;;;7.80;99.90;;;;;;4998224;28;20032;-79
2022/12/25 06:39:03;;;;;;;20.40;9.98;;;7.80;99.90;;;;;;4989721;28;20048;-79
2022/12/25 06:41:30;;;;;;;21.65;9.50;;;7.80;99.90;;;;;;5005830;28;20049;-79
2022/12/25 06:43:58;;;;;;;15.10;8.98;;;7.80;99.90;;;;;;4983645;28;20214;-80
2022/12/25 06:46:27;;;;;;;26.50;12.40;;;7.90;99.90;;;;;;4998101;28;20045;-80
2022/12/25 06:48:54;;;;;;;23.52;11.25;;;7.90;99.90;;;;;;5000376;28;20053;-79
2022/12/25 06:51:23;;;;;;;22.67;9.20;;;7.90;99.90;;;;;;4999264;28;20493;-78
2022/12/25 06:53:51;;;;;;;20.83;9.80;;;7.90;99.90;;;;;;5019012;28;20034;-78
2022/12/25 06:56:21;;;;;;;22.23;10.52;;;8.00;99.90;;;;;;5002513;28;20037;-79
2022/12/25 06:58:56;;;;;;;23.33;10.85;;;8.00;99.90;;;;;;5018854;28;20408;-78
2022/12/25 07:01:28;;;;;;;26.35;10.93;;;8.00;99.90;;;;;;5000090;28;20037;-77
2022/12/25 07:04:04;;;;;;;37.53;14.00;;;8.10;99.90;;;;;;5002821;28;20042;-78
2022/12/25 07:06:31;;;;;;;32.97;12.35;;;8.10;99.90;;;;;;5001691;28;20041;-78
2022/12/25 07:08:58;;;;;;;37.42;12.63;;;8.10;99.90;;;;;;5018282;28;20049;-77
2022/12/25 07:11:25;;;;;;;21.35;9.25;;;8.10;99.90;;;;;;4997204;28;20045;-79
2022/12/25 07:13:51;;;;;;;28.63;9.65;;;8.20;99.90;;;;;;4986492;28;20038;-79
2022/12/25 07:16:18;;;;;;;39.95;10.90;;;8.20;99.90;;;;;;5002177;28;20034;-79
2022/12/25 07:18:44;;;;;;;27.65;11.55;;;8.20;99.90;;;;;;4978284;28;20038;-79
2022/12/25 07:21:15;;;;;;;35.67;12.38;;;8.20;99.90;;;;;;4996184;28;20592;-79
2022/12/25 07:23:44;;;;;;;25.65;10.23;;;8.30;99.90;;;;;;5018361;28;20038;-79
2022/12/25 07:26:11;;;;;;;28.63;11.20;;;8.30;99.90;;;;;;5000957;28;20046;-78
2022/12/25 07:28:38;;;;;;;30.80;11.57;;;8.30;99.90;;;;;;4984892;28;20100;-78
2022/12/25 07:31:13;;;;;;;18.42;8.48;;;8.40;99.90;;;;;;5013397;28;20041;-78
2022/12/25 07:33:40;;;;;;;20.13;9.98;;;8.40;99.90;;;;;;5016562;28;20034;-78
2022/12/25 07:36:07;;;;;;;23.15;11.23;;;8.40;99.90;;;;;;4985275;28;20198;-79
2022/12/25 07:38:33;;;;;;;25.00;9.48;;;8.50;99.90;;;;;;4985737;28;20041;-79
2022/12/25 07:41:00;;;;;;;25.17;10.63;;;8.50;99.90;;;;;;4995927;28;20038;-79
2022/12/25 07:43:26;;;;;;;24.98;10.35;;;8.50;99.90;;;;;;5001769;28;20058;-79
2022/12/25 07:45:57;;;;;;;23.70;10.05;;;8.50;99.90;;;;;;5013948;28;20041;-78
2022/12/25 07:48:25;;;;;;;23.55;9.45;;;8.60;99.90;;;;;;5001502;28;20046;-79
2022/12/25 07:51:07;;;;;;;22.85;9.98;;;8.60;99.90;;;;;;4997408;28;20378;-78
2022/12/25 07:53:34;;;;;;;25.08;9.98;;;8.60;99.90;;;;;;4975301;28;20054;-78
2022/12/25 07:56:03;;;;;;;20.10;8.38;;;8.60;99.90;;;;;;4985460;28;20045;-78
2022/12/25 07:58:30;;;;;;;21.25;9.90;;;8.60;99.90;;;;;;4987847;28;20041;-78
2022/12/25 08:01:06;;;;;;;20.85;9.35;;;8.60;99.90;;;;;;4992321;28;20041;-78
2022/12/25 08:03:33;;;;;;;16.63;8.07;;;8.60;99.90;;;;;;5001167;28;20045;-78
2022/12/25 08:06:04;;;;;;;19.10;8.32;;;8.70;99.90;;;;;;5013984;28;20048;-79
2022/12/25 08:08:31;;;;;;;19.63;8.38;;;8.70;99.90;;;;;;4985724;28;20046;-78
2022/12/25 08:10:57;;;;;;;15.07;7.53;;;8.70;99.90;;;;;;4998115;28;20048;-78
2022/12/25 08:13:23;;;;;;;16.83;7.57;;;8.70;99.90;;;;;;5002893;28;20528;-79
2022/12/25 08:15:55;;;;;;;19.38;8.10;;;8.80;99.90;;;;;;4999425;28;20047;-78
2022/12/25 08:18:21;;;;;;;22.75;9.20;;;8.80;99.90;;;;;;4962003;28;20038;-78
2022/12/25 08:20:47;;;;;;;19.27;8.50;;;8.80;99.90;;;;;;4976752;28;20030;-78
2022/12/25 08:23:14;;;;;;;16.90;8.40;;;8.80;99.90;;;;;;4963348;28;20044;-78
2022/12/25 08:25:40;;;;;;;15.15;9.10;;;8.80;99.90;;;;;;4987972;28;20101;-78
2022/12/25 08:28:07;;;;;;;14.20;7.97;;;8.80;99.90;;;;;;4997771;28;20413;-79
2022/12/25 08:30:33;;;;;;;18.90;9.13;;;8.80;99.90;;;;;;4993254;28;20042;-78
2022/12/25 08:32:59;;;;;;;20.63;9.38;;;8.90;99.90;;;;;;4962098;28;20046;-78
2022/12/25 08:35:26;;;;;;;15.93;7.65;;;8.90;99.90;;;;;;4994999;28;20500;-79
2022/12/25 08:37:52;;;;;;;14.35;7.60;;;8.90;99.90;;;;;;4979837;28;20440;-79
2022/12/25 08:40:18;;;;;;;15.45;7.57;;;8.90;99.90;;;;;;5008907;28;20967;-78
2022/12/25 08:42:45;;;;;;;19.38;8.43;;;8.90;99.90;;;;;;4993993;28;20041;-79
2022/12/25 08:45:11;;;;;;;17.40;8.20;;;9.00;99.90;;;;;;4982884;28;20408;-78
2022/12/25 08:47:37;;;;;;;16.48;7.80;;;9.00;99.90;;;;;;4982159;28;20536;-78
2022/12/25 08:50:05;;;;;;;17.10;8.20;;;9.00;99.90;;;;;;5003078;28;20042;-78
2022/12/25 08:52:31;;;;;;;18.90;9.07;;;9.00;99.90;;;;;;4977391;28;20053;-78
2022/12/25 08:54:57;;;;;;;16.95;8.85;;;9.00;99.90;;;;;;5009806;28;20046;-78
2022/12/25 08:57:24;;;;;;;18.23;8.60;;;9.00;99.90;;;;;;4970307;28;20041;-78
2022/12/25 08:59:50;;;;;;;18.85;8.77;;;9.10;99.90;;;;;;5013499;28;20041;-79
2022/12/25 09:02:17;;;;;;;15.82;7.97;;;9.10;99.90;;;;;;5012825;28;20048;-78
2022/12/25 09:04:46;;;;;;;17.23;8.07;;;9.10;99.90;;;;;;5005529;28;20045;-78
2022/12/25 09:07:12;;;;;;;18.35;8.73;;;9.10;99.90;;;;;;5005360;28;20045;-78
2022/12/25 09:09:38;;;;;;;19.27;9.48;;;9.10;99.90;;;;;;4981817;28;20489;-78
2022/12/25 09:12:05;;;;;;;17.08;8.90;;;9.20;99.90;;;;;;4989066;28;20457;-79
2022/12/25 09:14:31;;;;;;;19.85;10.05;;;9.10;99.90;;;;;;4985957;28;20516;-79
2022/12/25 09:16:57;;;;;;;18.08;9.00;;;9.10;99.90;;;;;;5006349;28;20037;-80
2022/12/25 09:19:24;;;;;;;15.45;8.65;;;9.20;99.90;;;;;;4990420;28;20516;-78
2022/12/25 09:21:50;;;;;;;16.40;7.88;;;9.20;99.90;;;;;;4996884;28;20037;-79
2022/12/25 09:24:17;;;;;;;15.57;8.27;;;9.10;99.90;;;;;;5002659;28;20045;-79
2022/12/25 09:26:43;;;;;;;16.38;8.13;;;9.20;99.90;;;;;;4988222;28;20042;-79
2022/12/25 09:29:09;;;;;;;17.50;8.63;;;9.10;99.90;;;;;;4987793;28;20038;-79
2022/12/25 09:31:36;;;;;;;14.43;7.15;;;9.20;99.90;;;;;;4979949;28;20048;-79
2022/12/25 09:34:02;;;;;;;12.00;6.32;;;9.20;99.90;;;;;;4987344;28;20038;-79
2022/12/25 09:36:29;;;;;;;12.15;7.38;;;9.20;99.90;;;;;;5020769;28;20046;-79
2022/12/25 09:38:55;;;;;;;16.95;8.63;;;9.20;99.90;;;;;;4969942;28;20386;-79
2022/12/25 09:41:33;;;;;;;16.20;8.65;;;9.20;99.90;;;;;;4997042;28;20045;-80
2022/12/25 09:44:26;;;;;;;13.55;7.20;;;9.20;99.90;;;;;;5001777;28;20043;-79
2022/12/25 09:46:57;;;;;;;15.75;7.95;;;9.20;99.90;;;;;;4997582;28;20121;-79
2022/12/25 09:49:50;;;;;;;12.57;6.85;;;9.20;99.90;;;;;;4992447;28;20056;-80
2022/12/25 09:52:27;;;;;;;;;;;9.20;99.90;;;;;;4968685;28;20528;-81
2022/12/25 09:55:11;;;;;;;20.17;7.75;;;9.20;99.90;;;;;;5001447;28;19913;-81
2022/12/25 09:57:38;;;;;;;16.85;7.30;;;9.20;99.90;;;;;;4969097;28;20026;-80
2022/12/25 10:00:16;;;;;;;15.20;7.65;;;9.20;99.90;;;;;;4994021;28;20037;-78
2022/12/25 10:03:12;;;;;;;19.35;9.63;;;9.20;99.90;;;;;;4979394;28;20045;-78
2022/12/25 10:06:06;;;;;;;14.20;9.18;;;9.20;99.90;;;;;;4995867;28;20038;-78
2022/12/25 10:08:42;;;;;;;22.38;12.05;;;9.20;99.90;;;;;;4987090;28;20046;-78
2022/12/25 10:11:48;;;;;;;17.80;9.98;;;9.20;99.90;;;;;;4986299;28;20041;-83
2022/12/25 10:14:29;;;;;;;14.55;8.07;;;9.20;99.90;;;;;;5019217;28;20045;-82
2022/12/25 10:17:23;;;;;;;16.65;7.60;;;9.20;99.90;;;;;;5001216;28;20591;-82
2022/12/25 10:20:15;;;;;;;17.23;8.73;;;9.20;99.90;;;;;;4999347;28;20042;-80
2022/12/25 10:22:46;;;;;;;15.50;7.60;;;9.20;99.90;;;;;;4991696;28;20618;-82
2022/12/25 10:25:31;;;;;;;20.50;9.05;;;9.20;99.90;;;;;;4986701;28;20030;-81
2022/12/25 10:28:04;;;;;;;12.93;7.32;;;9.20;99.90;;;;;;5018593;28;20042;-80
2022/12/25 10:30:31;;;;;;;12.32;7.10;;;9.20;99.90;;;;;;4993863;28;20081;-80
2022/12/25 10:32:57;;;;;;;11.98;6.68;;;9.20;99.90;;;;;;4981580;28;20042;-80
2022/12/25 10:35:27;;;;;;;15.13;6.97;;;9.20;99.90;;;;;;5003828;28;20038;-79
2022/12/25 10:38:09;;;;;;;15.85;7.30;;;9.20;99.90;;;;;;5003546;28;20041;-80
2022/12/25 10:41:17;;;;;;;12.47;6.77;;;9.20;99.90;;;;;;4967660;28;21060;-80
2022/12/25 10:43:51;;;;;;;15.93;7.68;;;9.30;99.90;;;;;;5003756;28;20520;-77
2022/12/25 10:46:19;;;;;;;15.93;7.57;;;9.20;99.90;;;;;;4987606;28;20045;-81
2022/12/25 10:48:58;;;;;;;11.73;6.80;;;9.20;99.90;;;;;;4999815;28;20052;-81
2022/12/25 10:51:36;;;;;;;11.15;6.32;;;9.30;99.90;;;;;;5004298;28;20034;-80
2022/12/25 10:54:16;;;;;;;11.93;6.78;;;9.30;99.90;;;;;;4985563;28;20037;-80
2022/12/25 10:56:57;;;;;;;13.25;7.13;;;9.30;99.90;;;;;;4973036;28;20052;-80
2022/12/25 10:59:26;;;;;;;10.68;6.22;;;9.30;99.90;;;;;;5016064;28;20038;-79
2022/12/25 11:02:02;;;;;;;12.40;6.30;;;9.30;99.90;;;;;;4970739;28;20042;-80
2022/12/25 11:04:33;;;;;;;11.93;6.72;;;9.30;99.90;;;;;;5018180;28;20041;-79
2022/12/25 11:07:02;;;;;;;14.77;7.25;;;9.40;99.90;;;;;;4986783;28;20041;-80
2022/12/25 11:09:29;;;;;;;15.73;6.25;;;9.40;99.90;;;;;;5000476;28;20041;-80
2022/12/25 11:11:55;;;;;;;13.00;7.43;;;9.40;99.90;;;;;;4975830;28;20069;-81
2022/12/25 11:14:22;;;;;;;12.40;6.53;;;9.40;99.90;;;;;;5000503;28;20034;-81
2022/12/25 11:16:49;;;;;;;14.80;6.78;;;9.40;99.90;;;;;;4984293;28;20046;-82
2022/12/25 11:19:31;;;;;;;11.02;6.32;;;9.30;99.90;;;;;;4980265;28;20432;-83
2022/12/25 11:22:00;;;;;;;14.98;6.72;;;9.30;99.90;;;;;;4991468;28;20037;-82
2022/12/25 11:24:30;;;;;;;12.10;6.70;;;9.30;99.90;;;;;;5023102;28;20363;-80
2022/12/25 11:26:59;;;;;;;15.70;8.50;;;9.30;99.90;;;;;;5017940;28;20069;-82
2022/12/25 11:29:51;;;;;;;17.63;8.18;;;9.30;99.90;;;;;;5014858;28;20033;-80
2022/12/25 11:32:30;;;;;;;14.00;9.02;;;9.40;99.90;;;;;;4977408;28;20360;-82
2022/12/25 11:34:59;;;;;;;16.25;8.45;;;9.40;99.90;;;;;;4980894;28;20037;-81
2022/12/25 11:37:46;;;;;;;16.13;10.55;;;9.40;99.90;;;;;;4980792;28;20048;-81
2022/12/25 11:40:48;;;;;;;17.33;10.88;;;9.30;99.90;;;;;;4997874;28;20041;-82
2022/12/25 11:43:25;;;;;;;14.10;9.07;;;9.30;99.90;;;;;;4983251;28;20531;-82
2022/12/25 11:46:13;;;;;;;17.60;9.93;;;9.30;99.90;;;;;;5002634;28;20404;-82
2022/12/25 11:48:46;;;;;;;14.60;8.52;;;9.40;99.90;;;;;;5001475;28;20062;-82
2022/12/25 11:51:15;;;;;;;16.55;9.88;;;9.40;99.90;;;;;;4976559;28;20083;-84
2022/12/25 11:53:51;;;;;;;14.20;9.07;;;9.40;99.90;;;;;;5018644;28;20046;-82
2022/12/25 11:56:22;;;;;;;20.80;10.82;;;9.40;99.90;;;;;;4999296;28;20049;-82
2022/12/25 11:58:52;;;;;;;13.55;8.40;;;9.40;99.90;;;;;;4994874;28;20774;-84
2022/12/25 12:01:41;;;;;;;13.57;8.00;;;9.40;99.90;;;;;;4997814;28;20497;-82
2022/12/25 12:04:26;;;;;;;20.25;12.38;;;9.40;99.90;;;;;;4984441;28;20041;-80
2022/12/25 12:07:01;;;;;;;16.30;9.75;;;9.40;99.90;;;;;;4984160;28;20038;-81
2022/12/25 12:09:54;;;;;;;15.93;8.73;;;9.40;99.90;;;;;;5013909;28;20045;-82
2022/12/25 12:12:53;;;;;;;16.35;8.75;;;9.50;99.90;;;;;;4973750;28;20053;-82
2022/12/25 12:15:43;;;;;;;28.60;12.38;;;9.50;99.90;;;;;;4999999;28;20314;-84
2022/12/25 12:18:25;;;;;;;17.05;9.30;;;9.50;99.90;;;;;;4997146;28;20141;-82
2022/12/25 12:21:26;;;;;;;13.23;8.60;;;9.60;99.90;;;;;;4991077;28;20042;-81
2022/12/25 12:24:01;;;;;;;17.70;9.00;;;9.60;99.90;;;;;;4986250;28;20050;-81
2022/12/25 12:26:31;;;;;;;15.68;7.28;;;9.60;99.90;;;;;;4995017;28;20046;-81
2022/12/25 12:29:00;;;;;;;12.45;8.13;;;9.60;99.90;;;;;;5000304;28;20511;-79
2022/12/25 12:31:48;;;;;;;15.32;8.63;;;9.60;99.90;;;;;;4993690;28;20045;-81
2022/12/25 12:34:39;;;;;;;12.85;7.88;;;9.70;99.90;;;;;;4992807;28;20046;-81
2022/12/25 12:37:14;;;;;;;13.52;8.35;;;9.70;99.90;;;;;;5017275;28;20795;-81
2022/12/25 12:39:41;;;;;;;19.02;8.82;;;9.70;99.90;;;;;;4982812;28;20545;-81
2022/12/25 12:42:17;;;;;;;15.50;8.07;;;9.70;99.90;;;;;;4991573;28;20053;-80
2022/12/25 12:44:45;;;;;;;11.32;7.03;;;9.70;99.90;;;;;;5007774;28;20068;-82
2022/12/25 12:47:35;;;;;;;14.40;7.97;;;9.70;99.90;;;;;;5016426;28;20042;-81
2022/12/25 12:50:03;;;;;;;14.93;7.57;;;9.70;99.90;;;;;;4996093;28;20850;-81
2022/12/25 12:52:31;;;;;;;16.55;7.78;;;9.70;99.90;;;;;;4997607;28;20065;-81
2022/12/25 12:55:07;;;;;;;18.15;8.40;;;9.70;99.90;;;;;;4997208;28;20702;-81
2022/12/25 12:57:38;;;;;;;18.77;8.82;;;9.70;99.90;;;;;;5015018;28;20040;-81
2022/12/25 13:00:16;;;;;;;17.80;9.65;;;9.70;99.90;;;;;;4995448;28;20042;-84
2022/12/25 13:02:57;;;;;;;15.43;9.05;;;9.70;99.90;;;;;;4982186;28;20072;-80
2022/12/25 13:05:46;;;;;;;18.95;7.85;;;9.70;99.90;;;;;;5001180;28;20030;-81
2022/12/25 13:08:50;;;;;;;20.30;10.50;;;9.80;99.90;;;;;;4979030;28;20069;-81
2022/12/25 13:11:23;;;;;;;15.98;8.57;;;9.80;99.90;;;;;;4971535;28;20038;-80
2022/12/25 13:13:52;;;;;;;25.35;14.25;;;9.80;99.90;;;;;;5015209;28;20041;-82
2022/12/25 13:16:44;;;;;;;22.00;13.60;;;9.80;99.90;;;;;;4984924;28;21164;-83
2022/12/25 13:19:15;;;;;;;21.30;11.20;;;9.80;99.90;;;;;;4980422;28;20034;-82
2022/12/25 13:21:53;;;;;;;16.27;9.23;;;9.90;99.90;;;;;;4968606;28;20048;-82
2022/12/25 13:24:22;;;;;;;17.02;10.20;;;9.90;99.90;;;;;;4971086;28;20060;-83
2022/12/25 13:26:49;;;;;;;17.75;9.93;;;9.90;99.90;;;;;;4980840;28;20045;-83
2022/12/25 13:29:28;;;;;;;16.23;11.20;;;9.90;99.90;;;;;;5014871;28;20041;-83
2022/12/25 13:31:59;;;;;;;17.75;9.38;;;9.90;99.90;;;;;;5005062;28;20033;-84
2022/12/25 13:34:34;;;;;;;22.42;12.32;;;9.90;99.90;;;;;;5015486;28;20388;-84
2022/12/25 13:37:09;;;;;;;21.58;11.77;;;9.90;99.90;;;;;;4993077;28;20037;-85
2022/12/25 13:39:44;;;;;;;20.17;10.32;;;9.90;99.90;;;;;;4975370;28;20026;-84
2022/12/25 13:42:15;;;;;;;22.00;11.23;;;9.90;99.90;;;;;;4991547;28;20492;-88
2022/12/25 13:45:06;;;;;;;30.35;13.57;;;9.90;99.90;;;;;;5002154;28;20205;-82
2022/12/25 13:47:38;;;;;;;19.98;10.50;;;9.90;99.90;;;;;;5004285;28;20496;-82
2022/12/25 13:50:25;;;;;;;17.23;10.80;;;9.90;99.90;;;;;;4982698;28;20050;-81
2022/12/25 13:52:53;;;;;;;21.90;12.15;;;9.90;99.90;;;;;;4987089;28;20038;-82
2022/12/25 13:55:21;;;;;;;24.13;13.65;;;9.90;99.90;;;;;;4988451;28;20062;-83
2022/12/25 13:58:01;;;;;;;19.50;11.30;;;9.80;99.90;;;;;;4988488;28;20030;-87
2022/12/25 14:00:31;;;;;;;19.98;11.55;;;9.80;99.90;;;;;;4995075;28;20045;-84
2022/12/25 14:02:58;;;;;;;30.30;15.75;;;9.80;99.90;;;;;;4984530;28;20034;-83
2022/12/25 14:05:24;;;;;;;35.10;20.98;;;9.90;99.90;;;;;;4983353;28;20052;-88
2022/12/25 14:07:56;;;;;;;35.08;21.00;;;9.90;99.90;;;;;;4980483;28;20033;-79
2022/12/25 14:10:26;;;;;;;33.35;18.98;;;9.80;99.90;;;;;;4972688;28;20045;-84
2022/12/25 14:12:55;;;;;;;28.50;18.42;;;9.90;99.90;;;;;;5002040;28;20042;-82
2022/12/25 14:15:22;;;;;;;26.80;16.23;;;9.90;99.90;;;;;;5000409;28;20038;-81
2022/12/25 14:17:50;;;;;;;23.88;14.07;;;9.90;99.90;;;;;;5017651;28;20440;-77
2022/12/25 14:20:27;;;;;;;22.80;13.75;;;9.80;99.90;;;;;;4995628;28;20065;-76
2022/12/25 14:22:56;;;;;;;25.73;14.98;;;9.80;99.90;;;;;;5018386;28;20022;-77
2022/12/25 14:25:29;;;;;;;31.63;16.08;;;9.80;99.90;;;;;;4999144;28;20045;-78
2022/12/25 14:27:55;;;;;;;27.75;15.75;;;9.80;99.90;;;;;;5013525;28;20034;-82
2022/12/25 14:30:26;;;;;;;30.73;16.42;;;9.80;99.90;;;;;;4977912;28;20492;-77
2022/12/25 14:32:54;;;;;;;23.77;14.07;;;9.80;99.90;;;;;;4986792;28;20068;-78
2022/12/25 14:35:22;;;;;;;26.60;14.95;;;9.90;99.90;;;;;;4995397;28;20037;-79
2022/12/25 14:37:56;;;;;;;27.10;15.30;;;9.90;99.90;;;;;;5003956;28;20026;-78
2022/12/25 14:40:24;;;;;;;21.90;12.95;;;9.90;99.90;;;;;;4990887;28;20049;-78
2022/12/25 14:42:59;;;;;;;27.70;15.02;;;9.90;99.90;;;;;;4995573;28;20077;-78
2022/12/25 14:45:34;;;;;;;25.20;15.32;;;9.90;99.90;;;;;;4962468;28;20042;-78
2022/12/25 14:48:13;;;;;;;23.65;14.55;;;9.80;99.90;;;;;;4999238;28;20041;-78
2022/12/25 14:50:49;;;;;;;37.97;18.25;;;9.80;99.90;;;;;;4988554;28;20057;-79